Time;durP1;ratioP1;P1;durP2;ratioP2;P2;SDS_P1;SDS_P2;PMS_P1;PMS_P2;Temp;Humidity;BMP_temperature;BMP_pressure;BME280_temperature;BME280_humidity;BME280_pressure;Samples;Min_cycle;Max_cycle;Signal;HPM_P1;HPM_P2
2022/12/01 00:00:38;;;;;;;45.65;24.83;;;7.70;86.20;;;;;;5034066;28;20408;-79
2022/12/01 00:03:04;;;;;;;51.97;26.08;;;7.70;84.50;;;;;;5034343;28;20409;-77
2022/12/01 00:05:30;;;;;;;54.50;27.08;;;7.60;85.00;;;;;;5034685;28;20400;-77
2022/12/01 00:07:57;;;;;;;56.30;28.45;;;7.60;86.80;;;;;;5035032;28;20389;-76
2022/12/01 00:10:27;;;;;;;57.13;29.38;;;7.60;89.80;;;;;;5036420;28;20396;-78
2022/12/01 00:13:01;;;;;;;57.78;29.00;;;7.60;89.00;;;;;;5036589;28;20398;-79
2022/12/01 00:15:29;;;;;;;51.03;26.40;;;7.70;86.50;;;;;;5028258;28;20432;-77
2022/12/01 00:17:54;;;;;;;56.33;27.35;;;7.60;86.30;;;;;;5036558;28;20393;-78
2022/12/01 00:20:20;;;;;;;51.15;27.42;;;7.60;86.30;;;;;;5027044;28;20389;-79
2022/12/01 00:22:47;;;;;;;51.03;26.08;;;7.70;86.50;;;;;;5020461;28;20399;-80
2022/12/01 00:25:14;;;;;;;55.53;27.08;;;7.70;85.70;;;;;;5019961;28;20456;-78
2022/12/01 00:27:40;;;;;;;50.30;26.90;;;7.70;86.50;;;;;;5019895;28;20462;-80
2022/12/01 00:30:09;;;;;;;47.13;25.70;;;7.70;83.90;;;;;;5020647;28;20484;-78
2022/12/01 00:32:35;;;;;;;50.80;25.07;;;7.60;84.10;;;;;;5017673;28;20381;-79
2022/12/01 00:35:01;;;;;;;44.97;24.80;;;7.70;85.20;;;;;;5021040;28;20774;-80
2022/12/01 00:37:29;;;;;;;45.58;24.08;;;7.60;84.60;;;;;;5022913;28;20834;-78
2022/12/01 00:39:56;;;;;;;45.92;22.95;;;7.60;84.40;;;;;;5021593;28;20781;-79
2022/12/01 00:42:21;;;;;;;46.00;24.35;;;7.50;85.00;;;;;;5024230;28;20404;-78
2022/12/01 00:44:47;;;;;;;50.13;26.27;;;7.50;86.10;;;;;;5027725;28;20460;-78
2022/12/01 00:47:13;;;;;;;49.97;25.90;;;7.50;88.90;;;;;;5027245;28;20393;-79
2022/12/01 00:49:39;;;;;;;46.78;25.70;;;7.60;86.60;;;;;;5021940;28;20420;-77
2022/12/01 00:52:05;;;;;;;49.10;24.48;;;7.50;89.80;;;;;;5021646;28;20416;-78
2022/12/01 00:54:31;;;;;;;45.50;24.70;;;7.60;85.70;;;;;;5032805;28;20387;-79
2022/12/01 00:56:57;;;;;;;45.90;25.65;;;7.70;84.90;;;;;;5027475;28;20397;-79
2022/12/01 00:59:23;;;;;;;47.40;26.30;;;7.70;85.10;;;;;;5020372;28;20491;-79
2022/12/01 01:01:49;;;;;;;48.30;25.38;;;7.60;85.70;;;;;;5021134;28;20444;-80
2022/12/01 01:04:14;;;;;;;53.90;27.30;;;7.60;86.50;;;;;;5020858;28;20866;-77
2022/12/01 01:06:42;;;;;;;54.85;27.08;;;7.60;87.50;;;;;;5022226;28;20439;-79
2022/12/01 01:09:08;;;;;;;58.43;28.83;;;7.60;87.60;;;;;;5020352;28;20417;-79
2022/12/01 01:11:35;;;;;;;62.90;30.35;;;7.60;88.40;;;;;;5024264;28;20404;-81
2022/12/01 01:14:01;;;;;;;59.37;29.43;;;7.60;89.90;;;;;;5031024;28;20389;-77
2022/12/01 01:16:27;;;;;;;64.65;30.20;;;7.50;90.30;;;;;;5036798;28;20496;-76
2022/12/01 01:18:52;;;;;;;60.70;30.52;;;7.60;91.40;;;;;;5035350;28;20396;-77
2022/12/01 01:21:20;;;;;;;65.97;30.50;;;7.60;91.20;;;;;;5025898;28;20841;-76
2022/12/01 01:23:46;;;;;;;62.15;29.63;;;7.60;93.50;;;;;;5020080;28;20385;-80
2022/12/01 01:26:15;;;;;;;58.58;29.50;;;7.60;91.40;;;;;;5021321;28;20396;-78
2022/12/01 01:28:40;;;;;;;58.47;28.92;;;7.60;91.80;;;;;;5021817;28;20468;-78
2022/12/01 01:31:08;;;;;;;63.70;28.80;;;7.60;92.60;;;;;;5022900;28;20385;-77
2022/12/01 01:33:35;;;;;;;71.65;31.17;;;7.60;93.20;;;;;;5032082;28;20381;-78
2022/12/01 01:36:02;;;;;;;72.90;31.40;;;7.50;93.90;;;;;;5032261;28;20554;-79
2022/12/01 01:38:28;;;;;;;62.90;29.30;;;7.40;98.90;;;;;;5028710;28;20389;-78
2022/12/01 01:40:54;;;;;;;67.85;30.25;;;7.50;97.80;;;;;;5024631;28;20452;-76
2022/12/01 01:43:45;;;;;;;68.47;30.30;;;7.50;96.90;;;;;;5027198;28;20464;-77
2022/12/01 01:46:16;;;;;;;71.85;31.13;;;7.40;97.40;;;;;;5028339;28;20381;-77
2022/12/01 01:48:46;;;;;;;73.47;30.30;;;7.40;99.40;;;;;;5023688;28;20457;-77
2022/12/01 01:51:14;;;;;;;83.90;32.55;;;7.40;98.90;;;;;;5024906;28;20382;-78
2022/12/01 01:53:42;;;;;;;74.05;31.48;;;7.30;99.90;;;;;;5026644;28;20820;-78
2022/12/01 01:56:08;;;;;;;80.15;33.53;;;7.30;99.90;;;;;;5022570;28;20500;-79
2022/12/01 01:58:35;;;;;;;83.40;34.22;;;7.30;99.90;;;;;;5021779;28;20396;-79
2022/12/01 02:01:01;;;;;;;78.18;32.47;;;7.30;99.90;;;;;;5023511;28;20469;-77
2022/12/01 02:03:28;;;;;;;73.80;31.77;;;7.40;99.90;;;;;;5026588;28;20384;-78
2022/12/01 02:05:54;;;;;;;83.68;32.78;;;7.30;99.80;;;;;;5024200;28;20388;-77
2022/12/01 02:08:20;;;;;;;82.63;32.22;;;7.30;99.90;;;;;;5029094;28;20389;-79
2022/12/01 02:11:22;;;;;;;80.30;33.10;;;7.40;99.90;;;;;;5029240;28;20403;-78
2022/12/01 02:14:33;;;;;;;87.75;33.70;;;7.30;99.90;;;;;;5030273;28;20458;-78
2022/12/01 02:17:20;;;;;;;76.90;33.70;;;7.30;99.90;;;;;;5009876;28;20403;-79
2022/12/01 02:20:23;;;;;;;74.15;32.10;;;7.40;99.90;;;;;;5017922;28;20378;-79
2022/12/01 02:23:38;;;;;;;82.50;32.90;;;7.40;99.90;;;;;;5018363;28;20512;-79
2022/12/01 02:26:22;;;;;;;78.85;32.67;;;7.40;99.90;;;;;;5002798;28;20374;-78
2022/12/01 02:29:01;;;;;;;82.55;33.63;;;7.40;99.90;;;;;;5030295;28;20401;-76
2022/12/01 02:31:40;;;;;;;84.10;34.55;;;7.30;99.70;;;;;;5022327;28;20381;-79
2022/12/01 02:34:15;;;;;;;90.80;35.97;;;7.30;99.90;;;;;;5029317;28;20477;-79
2022/12/01 02:37:05;;;;;;;89.25;34.97;;;7.30;99.90;;;;;;5029797;28;20386;-78
2022/12/01 02:39:37;;;;;;;90.13;36.38;;;7.40;99.90;;;;;;5012427;28;20385;-78
2022/12/01 02:42:08;;;;;;;89.47;35.00;;;7.40;99.90;;;;;;5018920;28;20452;-78
2022/12/01 02:44:44;;;;;;;81.35;34.38;;;7.50;99.90;;;;;;5026062;28;20381;-78
2022/12/01 02:47:16;;;;;;;96.50;37.08;;;7.40;99.90;;;;;;5018493;28;20405;-78
2022/12/01 02:49:51;;;;;;;95.38;36.70;;;7.50;99.90;;;;;;5020502;28;20461;-77
2022/12/01 02:52:19;;;;;;;97.38;34.05;;;7.40;99.90;;;;;;5022378;28;20392;-76
2022/12/01 02:54:47;;;;;;;93.57;36.22;;;7.40;99.80;;;;;;5029693;28;20385;-78
2022/12/01 02:57:14;;;;;;;103.32;38.20;;;7.30;99.90;;;;;;5026359;23;20448;-70
2022/12/01 02:59:48;;;;;;;99.13;36.10;;;7.30;99.90;;;;;;5010253;28;20408;-70
2022/12/01 03:02:13;;;;;;;107.88;38.08;;;7.30;99.90;;;;;;5008235;28;20412;-70
2022/12/01 03:04:42;;;;;;;100.45;37.25;;;7.20;99.90;;;;;;5010164;28;20389;-70
2022/12/01 03:07:10;;;;;;;99.75;38.53;;;7.20;99.90;;;;;;5012457;28;20758;-70
2022/12/01 03:09:54;;;;;;;101.70;38.28;;;7.20;99.90;;;;;;5014030;28;20384;-70
2022/12/01 03:12:34;;;;;;;100.18;37.33;;;7.20;99.90;;;;;;5013045;28;20419;-70
2022/12/01 03:15:09;;;;;;;107.72;36.35;;;7.20;99.90;;;;;;5013545;28;20415;-71
2022/12/01 03:17:51;;;;;;;100.17;37.00;;;7.20;99.90;;;;;;5013562;28;20420;-71
2022/12/01 03:20:32;;;;;;;107.10;37.75;;;7.10;99.90;;;;;;5013622;28;20512;-71
2022/12/01 03:23:15;;;;;;;107.70;38.10;;;7.20;99.90;;;;;;5013219;28;20463;-71
2022/12/01 03:25:45;;;;;;;110.80;38.60;;;7.20;99.90;;;;;;5014449;28;20384;-71
2022/12/01 03:28:14;;;;;;;103.20;38.17;;;7.20;99.90;;;;;;5014196;28;20810;-70
2022/12/01 03:30:42;;;;;;;100.88;37.72;;;7.20;99.90;;;;;;5013392;28;20382;-70
2022/12/01 03:33:17;;;;;;;92.80;34.28;;;7.30;99.90;;;;;;5012539;28;20741;-70
2022/12/01 03:35:49;;;;;;;94.05;35.83;;;7.30;99.90;;;;;;5012000;28;20412;-70
2022/12/01 03:38:22;;;;;;;89.68;34.80;;;7.30;99.90;;;;;;5013174;28;20385;-70
2022/12/01 03:40:51;;;;;;;94.35;36.10;;;7.30;99.90;;;;;;5012840;28;20771;-70
2022/12/01 03:43:25;;;;;;;101.13;36.53;;;7.20;99.90;;;;;;5011423;28;20739;-71
2022/12/01 03:46:16;;;;;;;91.68;34.75;;;7.30;99.90;;;;;;5013011;28;20377;-70
2022/12/01 03:48:42;;;;;;;100.22;36.50;;;7.20;99.90;;;;;;5012766;28;20488;-71
2022/12/01 03:51:19;;;;;;;107.00;39.77;;;7.20;99.90;;;;;;5012169;28;20381;-70
2022/12/01 03:53:56;;;;;;;102.55;36.63;;;7.10;99.90;;;;;;5019710;28;20407;-70
2022/12/01 03:56:26;;;;;;;101.28;37.70;;;7.20;99.90;;;;;;5015177;28;20400;-70
2022/12/01 03:58:56;;;;;;;105.93;37.33;;;7.20;99.90;;;;;;5012943;28;20385;-70
2022/12/01 04:01:22;;;;;;;100.57;37.03;;;7.10;99.90;;;;;;5012208;28;20397;-70
2022/12/01 04:03:48;;;;;;;99.32;36.15;;;7.10;99.90;;;;;;5013010;28;20785;-70
2022/12/01 04:06:14;;;;;;;100.20;35.55;;;7.00;99.90;;;;;;5012720;28;20385;-70
2022/12/01 04:08:39;;;;;;;90.90;36.28;;;7.00;99.90;;;;;;5012911;28;20391;-70
2022/12/01 04:12:28;;;;;;;84.25;33.80;;;6.90;99.90;;;;;;5012089;28;20869;-69
2022/12/01 04:13:51;;;;;;;82.32;33.00;;;6.90;99.90;;;;;;5012468;28;20464;-70
2022/12/01 04:16:16;;;;;;;76.53;33.15;;;7.00;99.90;;;;;;5012410;28;20480;-70
2022/12/01 04:18:42;;;;;;;80.22;31.52;;;7.00;98.80;;;;;;5011648;28;20381;-70
2022/12/01 04:21:07;;;;;;;78.80;32.13;;;7.00;97.90;;;;;;5011548;28;20408;-70
2022/12/01 04:26:17;;;;;;;64.32;28.13;;;7.10;92.90;;;;;;5012366;28;20393;-70
2022/12/01 04:28:42;;;;;;;66.10;29.80;;;7.10;90.40;;;;;;5012556;28;20385;-70
2022/12/01 04:31:08;;;;;;;57.53;27.60;;;7.20;92.10;;;;;;5023684;28;20380;-70
2022/12/01 04:33:33;;;;;;;61.63;28.47;;;7.20;88.40;;;;;;5030396;28;20412;-70
2022/12/01 04:35:59;;;;;;;60.20;25.90;;;7.30;90.20;;;;;;5023733;28;20488;-70
2022/12/01 04:38:25;;;;;;;53.25;25.90;;;7.30;86.90;;;;;;5012403;28;20403;-70
2022/12/01 04:40:51;;;;;;;52.85;27.55;;;7.30;85.50;;;;;;5011235;28;20400;-70
2022/12/01 04:43:16;;;;;;;55.20;26.57;;;7.30;87.00;;;;;;5011828;28;20392;-70
2022/12/01 04:45:42;;;;;;;52.93;25.63;;;7.40;85.60;;;;;;5011882;28;20385;-71
2022/12/01 04:48:07;;;;;;;52.30;25.50;;;7.40;85.40;;;;;;5011619;28;20471;-71
2022/12/01 04:50:33;;;;;;;56.37;25.83;;;7.40;83.80;;;;;;5011602;28;20464;-71
2022/12/01 04:52:58;;;;;;;58.10;27.07;;;7.40;84.90;;;;;;5011268;28;20389;-71
2022/12/01 04:55:24;;;;;;;54.27;27.73;;;7.40;83.70;;;;;;5011757;28;20388;-71
2022/12/01 04:57:50;;;;;;;62.60;28.10;;;7.40;83.30;;;;;;5011593;28;20393;-71
2022/12/01 05:00:17;;;;;;;64.68;27.70;;;7.40;84.10;;;;;;5010182;28;20472;-72
2022/12/01 05:02:43;;;;;;;60.20;26.77;;;7.40;83.30;;;;;;5026446;28;20496;-71
2022/12/01 05:05:12;;;;;;;55.13;25.00;;;7.30;81.20;;;;;;5011269;28;20471;-71
2022/12/01 05:07:38;;;;;;;61.65;27.38;;;7.20;81.00;;;;;;5011790;28;20478;-71
2022/12/01 05:10:05;;;;;;;60.97;28.05;;;7.10;82.90;;;;;;5011394;28;20468;-71
2022/12/01 05:12:30;;;;;;;58.33;26.52;;;7.20;84.00;;;;;;5010719;28;20479;-71
2022/12/01 05:14:56;;;;;;;67.00;27.83;;;7.20;82.90;;;;;;5011160;28;20484;-71
2022/12/01 05:17:21;;;;;;;56.10;27.30;;;7.20;83.70;;;;;;5009777;28;20460;-70
2022/12/01 05:22:31;;;;;;;56.33;27.67;;;7.10;86.20;;;;;;5010403;28;20427;-70
2022/12/01 05:24:57;;;;;;;58.58;28.90;;;7.20;85.10;;;;;;5011231;28;20411;-71
2022/12/01 05:27:22;;;;;;;58.78;27.05;;;7.20;84.90;;;;;;5010823;28;20912;-71
2022/12/01 05:29:48;;;;;;;60.83;28.58;;;7.20;84.70;;;;;;5010795;28;20396;-71
2022/12/01 05:32:13;;;;;;;61.33;28.20;;;7.20;84.00;;;;;;5010403;28;20414;-71
2022/12/01 05:34:39;;;;;;;62.33;29.05;;;7.20;84.10;;;;;;5010970;28;20885;-71
2022/12/01 05:37:04;;;;;;;60.25;28.85;;;7.20;84.90;;;;;;5011356;28;20431;-72
2022/12/01 05:39:30;;;;;;;60.72;28.95;;;7.20;84.40;;;;;;5010999;28;20723;-71
2022/12/01 05:41:56;;;;;;;54.38;27.05;;;7.20;83.20;;;;;;5009994;28;20829;-71
2022/12/01 05:44:21;;;;;;;62.92;30.50;;;7.20;82.80;;;;;;5011162;28;20385;-71
2022/12/01 05:46:46;;;;;;;61.75;29.50;;;7.30;83.40;;;;;;5009399;28;20502;-71
2022/12/01 05:49:12;;;;;;;61.35;29.80;;;7.30;83.10;;;;;;5011223;28;20491;-71
2022/12/01 05:51:38;;;;;;;67.70;31.13;;;7.40;83.80;;;;;;5020177;28;20393;-71
2022/12/01 05:54:03;;;;;;;68.35;30.10;;;7.40;81.40;;;;;;5021750;28;20389;-71
2022/12/01 05:56:31;;;;;;;72.28;31.58;;;7.40;81.60;;;;;;5019979;28;20440;-72
2022/12/01 05:58:56;;;;;;;69.55;32.38;;;7.40;82.40;;;;;;5010340;28;20428;-72
2022/12/01 06:01:22;;;;;;;65.90;31.90;;;7.40;83.20;;;;;;5010932;28;20412;-70
2022/12/01 06:03:47;;;;;;;63.92;32.15;;;7.30;82.50;;;;;;5012361;28;20391;-71
2022/12/01 06:06:13;;;;;;;68.95;30.58;;;7.40;83.40;;;;;;5010181;28;20389;-70
2022/12/01 06:08:38;;;;;;;64.75;31.83;;;7.30;82.90;;;;;;5009397;28;20476;-70
2022/12/01 06:11:04;;;;;;;76.95;30.50;;;7.30;85.20;;;;;;5009970;28;20484;-71
2022/12/01 06:13:30;;;;;;;63.05;29.92;;;7.40;83.20;;;;;;5010200;28;20423;-70
2022/12/01 06:16:01;;;;;;;67.47;31.10;;;7.40;83.80;;;;;;5010333;28;20392;-70
2022/12/01 06:18:30;;;;;;;64.28;31.23;;;7.40;83.90;;;;;;5011102;28;20420;-73
2022/12/01 06:20:56;;;;;;;63.87;29.50;;;7.40;84.60;;;;;;5025897;28;20405;-71
2022/12/01 06:23:21;;;;;;;73.07;32.75;;;7.50;83.10;;;;;;5011052;28;20384;-70
2022/12/01 06:25:48;;;;;;;80.93;35.72;;;7.50;82.70;;;;;;5010446;28;20475;-72
2022/12/01 06:28:13;;;;;;;97.40;39.65;;;7.40;83.70;;;;;;5010248;28;20477;-71
2022/12/01 06:30:39;;;;;;;94.07;38.55;;;7.40;85.70;;;;;;5010507;28;20471;-71
2022/12/01 06:33:05;;;;;;;99.53;41.05;;;7.30;87.40;;;;;;5010024;28;20391;-71
2022/12/01 06:35:31;;;;;;;97.75;40.05;;;7.30;88.70;;;;;;5010539;28;20389;-72
2022/12/01 06:37:56;;;;;;;100.17;43.87;;;7.20;89.70;;;;;;5010721;28;20399;-72
2022/12/01 06:40:22;;;;;;;89.57;36.70;;;7.20;91.60;;;;;;5010350;28;20508;-70
2022/12/01 06:42:47;;;;;;;89.30;35.87;;;7.30;88.80;;;;;;5013098;28;20457;-70
2022/12/01 06:45:13;;;;;;;82.80;35.93;;;7.30;86.90;;;;;;5014219;28;20403;-71
2022/12/01 06:47:38;;;;;;;79.13;34.70;;;7.30;87.30;;;;;;5014331;28;20389;-71
2022/12/01 06:50:07;;;;;;;82.73;34.23;;;7.30;88.10;;;;;;5013361;28;20397;-72
2022/12/01 06:52:33;;;;;;;75.75;30.73;;;7.30;86.70;;;;;;5011924;28;20455;-71
2022/12/01 06:54:59;;;;;;;67.93;32.00;;;7.30;85.20;;;;;;5015815;28;20477;-70
2022/12/01 06:57:25;;;;;;;73.27;33.80;;;7.30;85.80;;;;;;5017784;28;20913;-71
2022/12/01 06:59:51;;;;;;;65.25;30.15;;;7.30;86.40;;;;;;5025551;28;20761;-71
2022/12/01 07:02:16;;;;;;;66.35;32.03;;;7.30;83.70;;;;;;5026047;28;20428;-70
2022/12/01 07:04:42;;;;;;;69.80;30.70;;;7.30;84.80;;;;;;5024474;28;20404;-71
2022/12/01 07:07:07;;;;;;;64.13;29.42;;;7.30;83.40;;;;;;5018402;28;20406;-72
2022/12/01 07:09:34;;;;;;;63.15;30.95;;;7.20;82.10;;;;;;5021318;28;20403;-72
2022/12/01 07:11:59;;;;;;;63.27;30.60;;;7.30;84.10;;;;;;5017213;28;20419;-71
2022/12/01 07:14:26;;;;;;;65.95;30.17;;;7.30;83.20;;;;;;5024311;28;20384;-70
2022/12/01 07:16:51;;;;;;;66.77;29.10;;;7.20;82.90;;;;;;5020124;28;20770;-72
2022/12/01 07:19:17;;;;;;;65.47;29.30;;;7.20;82.40;;;;;;5016269;28;20389;-71
2022/12/01 07:21:43;;;;;;;61.97;28.55;;;7.20;83.30;;;;;;5013876;28;20416;-71
2022/12/01 07:24:08;;;;;;;68.22;30.05;;;7.20;83.30;;;;;;5013060;28;20817;-72
2022/12/01 07:26:34;;;;;;;61.78;30.60;;;7.20;84.50;;;;;;5014216;28;20438;-71
2022/12/01 07:29:00;;;;;;;71.77;30.30;;;7.10;84.00;;;;;;5013706;28;20386;-71
2022/12/01 07:31:25;;;;;;;65.57;30.00;;;7.10;85.30;;;;;;5008062;28;20412;-72
2022/12/01 07:33:51;;;;;;;67.40;29.97;;;7.10;84.20;;;;;;5011860;28;20491;-73
2022/12/01 07:36:17;;;;;;;68.20;29.45;;;7.20;83.90;;;;;;5013462;28;20400;-71
2022/12/01 07:38:42;;;;;;;71.25;30.92;;;7.10;84.00;;;;;;5013580;28;20415;-72
2022/12/01 07:41:11;;;;;;;68.07;30.10;;;7.10;84.40;;;;;;5012238;28;20412;-72
2022/12/01 07:43:37;;;;;;;71.70;30.48;;;7.10;83.80;;;;;;5010641;28;20389;-72
2022/12/01 07:46:10;;;;;;;66.95;30.17;;;7.00;84.20;;;;;;5020785;28;20432;-72
2022/12/01 07:48:37;;;;;;;70.05;30.20;;;7.00;84.90;;;;;;5009409;28;20390;-72
2022/12/01 07:51:03;;;;;;;77.00;33.97;;;7.10;85.10;;;;;;5011131;28;20388;-71
2022/12/01 07:53:30;;;;;;;74.07;31.70;;;7.00;86.20;;;;;;5009184;28;20397;-73
2022/12/01 07:55:55;;;;;;;83.68;35.47;;;7.10;85.90;;;;;;5011479;28;20862;-73
2022/12/01 07:58:21;;;;;;;79.60;34.50;;;7.10;86.10;;;;;;5022583;28;20405;-73
2022/12/01 08:00:46;;;;;;;84.33;35.23;;;7.20;86.00;;;;;;5030534;28;20832;-73
2022/12/01 08:03:12;;;;;;;77.37;34.07;;;7.30;84.90;;;;;;5031155;28;20387;-73
2022/12/01 08:05:38;;;;;;;71.97;33.08;;;7.30;83.00;;;;;;5027222;28;20420;-72
2022/12/01 08:08:04;;;;;;;71.30;31.80;;;7.40;82.30;;;;;;5010918;28;20392;-73
2022/12/01 08:10:29;;;;;;;74.38;32.33;;;7.30;81.10;;;;;;5011064;28;20397;-73
2022/12/01 08:12:55;;;;;;;72.50;32.23;;;7.30;81.70;;;;;;5013954;28;20381;-73
2022/12/01 08:15:21;;;;;;;76.37;32.20;;;7.30;81.90;;;;;;5010015;28;20381;-72
2022/12/01 08:17:46;;;;;;;75.20;32.97;;;7.30;82.20;;;;;;5009590;28;20428;-73
2022/12/01 08:20:12;;;;;;;76.00;32.67;;;7.30;81.50;;;;;;5010137;28;20888;-73
2022/12/01 08:22:37;;;;;;;75.80;32.97;;;7.40;80.70;;;;;;5008902;28;20512;-73
2022/12/01 08:25:04;;;;;;;77.47;32.63;;;7.30;80.70;;;;;;5010109;28;20723;-73
2022/12/01 08:27:29;;;;;;;72.57;31.70;;;7.30;81.30;;;;;;5010011;28;20710;-72
2022/12/01 08:29:55;;;;;;;88.97;33.53;;;7.40;80.60;;;;;;5008395;28;20396;-72
2022/12/01 08:32:20;;;;;;;77.23;31.47;;;7.50;81.00;;;;;;5008749;28;20495;-74
2022/12/01 08:34:46;;;;;;;70.10;31.17;;;7.50;78.30;;;;;;5010010;28;20435;-72
2022/12/01 08:37:12;;;;;;;73.10;32.63;;;7.50;77.00;;;;;;5010500;28;20408;-70
2022/12/01 08:39:37;;;;;;;77.63;32.75;;;7.50;78.40;;;;;;5009618;28;20401;-70
2022/12/01 08:42:03;;;;;;;82.03;33.53;;;7.50;79.40;;;;;;5009938;28;20512;-70
2022/12/01 08:44:28;;;;;;;72.00;33.13;;;7.60;78.50;;;;;;5010024;28;20384;-70
2022/12/01 08:46:54;;;;;;;78.47;34.80;;;7.60;77.30;;;;;;5007819;28;20436;-70
2022/12/01 08:49:21;;;;;;;83.10;35.42;;;7.70;77.30;;;;;;5007062;28;20424;-70
2022/12/01 08:51:46;;;;;;;77.60;32.85;;;7.70;77.50;;;;;;5008535;28;20419;-71
2022/12/01 08:54:12;;;;;;;76.33;33.57;;;7.60;75.20;;;;;;5009494;28;20432;-70
2022/12/01 08:56:40;;;;;;;80.23;33.77;;;7.50;76.90;;;;;;5009700;28;20432;-71
2022/12/01 08:59:06;;;;;;;74.33;33.30;;;7.50;76.80;;;;;;5007587;28;20447;-70
2022/12/01 09:01:33;;;;;;;78.07;33.08;;;7.50;76.90;;;;;;5008580;28;20436;-70
2022/12/01 09:04:04;;;;;;;89.03;35.05;;;7.40;78.20;;;;;;5007831;28;20836;-70
2022/12/01 09:06:31;;;;;;;86.95;33.15;;;7.40;78.40;;;;;;5007376;28;20800;-69
2022/12/01 09:08:58;;;;;;;83.82;36.45;;;7.40;77.90;;;;;;5009318;28;20766;-71
2022/12/01 09:11:24;;;;;;;78.37;32.80;;;7.40;79.10;;;;;;5009386;28;20374;-73
2022/12/01 09:13:50;;;;;;;81.15;33.03;;;7.50;77.80;;;;;;5009423;28;20749;-70
2022/12/01 09:16:17;;;;;;;76.25;32.22;;;7.50;77.20;;;;;;5010466;28;20405;-71
2022/12/01 09:18:44;;;;;;;73.85;34.35;;;7.40;77.30;;;;;;5008475;28;20795;-70
2022/12/01 09:21:11;;;;;;;70.55;31.15;;;7.50;78.70;;;;;;5008667;28;20480;-71
2022/12/01 09:23:38;;;;;;;83.67;35.83;;;7.60;76.40;;;;;;5008764;28;20822;-71
2022/12/01 09:26:04;;;;;;;84.00;34.75;;;7.70;78.30;;;;;;5008582;28;20469;-71
2022/12/01 09:28:29;;;;;;;82.95;33.47;;;7.80;76.20;;;;;;5008630;28;20409;-71
2022/12/01 09:30:55;;;;;;;90.38;36.42;;;7.80;73.50;;;;;;5007425;28;20431;-71
2022/12/01 09:33:21;;;;;;;83.00;34.70;;;7.70;75.20;;;;;;5009111;28;20467;-71
2022/12/01 09:35:46;;;;;;;90.93;37.63;;;7.70;74.90;;;;;;5009061;28;20438;-71
2022/12/01 09:38:12;;;;;;;88.43;36.30;;;7.70;76.30;;;;;;5008886;28;20403;-71
2022/12/01 09:40:41;;;;;;;81.13;35.37;;;7.70;75.60;;;;;;5008459;28;20408;-72
2022/12/01 09:43:26;;;;;;;77.93;34.17;;;7.70;76.00;;;;;;5007874;28;20389;-71
2022/12/01 09:45:57;;;;;;;74.85;34.92;;;7.70;76.20;;;;;;5007166;28;20400;-71
2022/12/01 09:48:33;;;;;;;84.00;36.63;;;7.60;76.90;;;;;;5006398;28;20833;-70
2022/12/01 09:50:59;;;;;;;89.63;36.40;;;7.70;78.00;;;;;;5006972;28;20825;-70
2022/12/01 09:53:27;;;;;;;86.22;35.88;;;7.70;77.40;;;;;;5008880;28;20403;-71
2022/12/01 09:55:54;;;;;;;77.55;34.35;;;7.70;77.60;;;;;;5007568;28;20419;-71
2022/12/01 09:58:25;;;;;;;81.38;36.17;;;7.70;77.80;;;;;;5020172;28;20427;-70
2022/12/01 10:00:53;;;;;;;70.15;33.00;;;7.70;78.10;;;;;;5017654;28;20480;-70
2022/12/01 10:03:36;;;;;;;75.18;32.47;;;7.70;77.70;;;;;;5008688;28;20887;-70
2022/12/01 10:06:09;;;;;;;72.18;30.95;;;7.70;78.30;;;;;;5009663;28;20373;-71
2022/12/01 10:08:40;;;;;;;67.03;29.95;;;7.70;76.90;;;;;;5009261;28;20468;-71
2022/12/01 10:11:14;;;;;;;63.45;27.98;;;7.60;78.30;;;;;;5008461;28;20435;-71
2022/12/01 10:13:40;;;;;;;62.33;28.35;;;7.60;77.30;;;;;;5004838;28;20918;-72
2022/12/01 10:16:12;;;;;;;59.83;28.30;;;7.70;76.80;;;;;;5010898;28;20400;-71
2022/12/01 10:19:05;;;;;;;67.25;28.77;;;7.80;76.10;;;;;;4995576;28;20906;-72
2022/12/01 10:21:42;;;;;;;69.60;30.13;;;7.80;74.80;;;;;;4992651;28;20406;-72
2022/12/01 10:24:08;;;;;;;80.90;34.72;;;7.90;75.60;;;;;;4996148;28;20403;-72
2022/12/01 10:26:55;;;;;;;66.88;30.85;;;7.80;76.90;;;;;;4995762;28;20417;-72
2022/12/01 10:29:30;;;;;;;72.53;31.63;;;7.90;74.90;;;;;;4995875;28;20922;-72
2022/12/01 10:32:00;;;;;;;73.63;33.33;;;7.80;76.00;;;;;;4995345;28;20795;-72
2022/12/01 10:34:32;;;;;;;63.88;31.08;;;7.90;77.90;;;;;;4995919;28;20457;-72
2022/12/01 10:36:58;;;;;;;80.13;35.75;;;7.80;75.40;;;;;;4995539;28;20419;-72
2022/12/01 10:39:37;;;;;;;76.72;33.63;;;7.80;78.30;;;;;;4996450;28;20910;-72
2022/12/01 10:42:13;;;;;;;76.00;30.55;;;7.80;78.80;;;;;;4994108;28;20818;-72
2022/12/01 10:44:40;;;;;;;68.45;32.08;;;7.70;78.60;;;;;;4995828;28;20383;-72
2022/12/01 10:47:19;;;;;;;79.60;35.90;;;7.70;79.30;;;;;;4995564;28;20382;-72
2022/12/01 10:49:45;;;;;;;79.75;37.00;;;7.70;81.90;;;;;;4995636;28;20402;-72
2022/12/01 10:52:36;;;;;;;70.43;33.35;;;7.70;84.40;;;;;;4996781;28;20454;-71
2022/12/01 10:55:25;;;;;;;70.10;31.88;;;7.80;81.60;;;;;;4996477;28;20457;-72
2022/12/01 10:57:52;;;;;;;67.28;30.65;;;7.80;82.00;;;;;;5001990;28;20492;-71
2022/12/01 11:00:24;;;;;;;63.65;30.00;;;7.70;80.60;;;;;;5001934;28;20394;-71
2022/12/01 11:02:50;;;;;;;65.70;31.20;;;7.70;82.70;;;;;;4998120;28;20415;-71
2022/12/01 11:05:37;;;;;;;64.47;29.63;;;7.60;82.30;;;;;;4997048;28;20469;-72
2022/12/01 11:08:03;;;;;;;71.35;29.88;;;7.60;82.00;;;;;;4994725;28;20417;-71
2022/12/01 11:10:31;;;;;;;74.10;31.55;;;7.60;84.00;;;;;;4994509;28;20402;-71
2022/12/01 11:13:01;;;;;;;68.53;29.08;;;7.50;87.00;;;;;;4993596;28;20498;-72
2022/12/01 11:15:31;;;;;;;65.68;29.73;;;7.50;86.20;;;;;;4992503;28;20891;-71
2022/12/01 11:17:59;;;;;;;65.35;29.30;;;7.60;86.50;;;;;;4992674;28;20783;-71
2022/12/01 11:20:38;;;;;;;59.13;29.08;;;7.70;84.60;;;;;;4994741;28;20375;-71
2022/12/01 11:23:25;;;;;;;61.30;28.70;;;7.70;80.30;;;;;;4994565;28;20417;-71
2022/12/01 11:25:59;;;;;;;60.83;28.33;;;7.70;78.90;;;;;;4994069;28;20809;-71
2022/12/01 11:28:25;;;;;;;53.55;27.30;;;7.70;80.40;;;;;;4991959;28;20399;-71
2022/12/01 11:31:00;;;;;;;57.73;26.90;;;7.80;78.20;;;;;;4993370;28;20387;-70
2022/12/01 11:33:27;;;;;;;54.25;26.77;;;7.70;74.50;;;;;;4993628;28;20764;-70
2022/12/01 11:35:53;;;;;;;56.45;28.35;;;7.70;75.30;;;;;;4993570;28;20395;-71
2022/12/01 11:38:21;;;;;;;52.63;27.15;;;7.80;72.80;;;;;;4993707;28;20390;-71
2022/12/01 11:40:56;;;;;;;60.75;29.83;;;7.80;71.20;;;;;;4993788;28;21203;-70
2022/12/01 11:43:27;;;;;;;56.03;27.08;;;7.80;72.80;;;;;;4993723;28;20474;-70
2022/12/01 11:45:54;;;;;;;61.17;28.90;;;7.90;67.10;;;;;;4992501;28;20410;-73
2022/12/01 11:48:27;;;;;;;60.95;29.40;;;8.00;68.70;;;;;;4994050;28;20401;-72
2022/12/01 11:51:05;;;;;;;59.33;29.23;;;8.10;66.30;;;;;;4993536;28;20469;-70
2022/12/01 11:53:32;;;;;;;53.07;28.10;;;8.20;62.50;;;;;;4993167;28;20429;-72
2022/12/01 11:56:17;;;;;;;64.72;29.98;;;8.20;61.00;;;;;;4991402;28;20410;-71
2022/12/01 11:58:44;;;;;;;58.67;29.25;;;8.30;59.90;;;;;;4993161;28;20387;-70
2022/12/01 12:01:51;;;;;;;57.47;29.10;;;8.60;59.40;;;;;;4992364;28;20462;-71
2022/12/01 12:04:19;;;;;;;61.25;32.33;;;8.70;54.30;;;;;;4993315;28;20415;-71
2022/12/01 12:07:04;;;;;;;58.67;30.67;;;8.80;55.10;;;;;;4993097;28;20386;-71
2022/12/01 12:09:50;;;;;;;56.37;27.83;;;8.90;51.70;;;;;;4993225;28;20382;-71
2022/12/01 12:12:42;;;;;;;67.53;29.23;;;8.70;52.30;;;;;;4992364;28;20486;-71
2022/12/01 12:15:22;;;;;;;60.08;29.55;;;8.70;53.40;;;;;;4997249;28;20382;-71
2022/12/01 12:18:17;;;;;;;54.03;29.52;;;8.70;52.10;;;;;;4992979;28;20379;-71
2022/12/01 12:21:11;;;;;;;62.40;30.77;;;8.80;50.40;;;;;;4993171;28;20390;-71
2022/12/01 12:24:08;;;;;;;60.90;32.67;;;8.70;52.60;;;;;;4992487;28;20826;-71
2022/12/01 12:26:51;;;;;;;68.37;32.33;;;8.50;52.80;;;;;;4991443;28;20421;-72
2022/12/01 12:29:44;;;;;;;70.05;33.58;;;8.50;53.10;;;;;;4992659;28;20440;-71
2022/12/01 12:32:37;;;;;;;60.55;30.48;;;8.40;54.10;;;;;;4992089;28;20497;-71
2022/12/01 12:35:31;;;;;;;56.83;29.73;;;8.40;52.70;;;;;;4993778;28;20490;-75
2022/12/01 12:38:14;;;;;;;57.42;30.33;;;8.30;54.00;;;;;;4995976;28;20412;-72
2022/12/01 12:40:39;;;;;;;59.67;32.00;;;8.30;54.50;;;;;;5000730;28;20477;-70
2022/12/01 12:43:21;;;;;;;61.78;31.17;;;8.40;55.30;;;;;;4997490;28;20410;-71
2022/12/01 12:46:00;;;;;;;62.08;33.67;;;8.50;52.80;;;;;;4994545;28;20421;-72
2022/12/01 12:48:51;;;;;;;64.57;33.17;;;8.60;54.20;;;;;;4992908;28;20872;-71
2022/12/01 12:51:30;;;;;;;64.45;33.15;;;8.70;51.70;;;;;;4992476;28;20426;-71
2022/12/01 12:54:16;;;;;;;61.00;33.10;;;8.70;50.10;;;;;;4992432;28;20416;-72
2022/12/01 12:56:46;;;;;;;77.25;36.20;;;8.60;51.30;;;;;;4992007;28;20481;-70